Tuesday, November 25, 2014, 7:08 PM EST

KPHF, Williamsburg International Airport

Location: Newport News, VA, United States Lat: 37.133
Local Time: 7:08 PM EST ( 0:08 GMT) Lon: -76.5
Time Zone: US/Eastern Elev: 42 ft

Show me the last for .
Show Decoded

2014-11-25 18:54 METAR KPHF 252354Z 10006KT 10SM -RA BKN100 12/05 A3009 RMK AO2 RAB51 SLP188
                 P0000 60000 T01220050 10156 20122 50010 =
2014-11-25 17:54 METAR KPHF 252254Z 02003KT 10SM CLR 13/04 A3010 RMK AO2 SLP192 T01330039 =
2014-11-25 16:54 METAR KPHF 252154Z 04003KT 10SM SCT047 BKN070 13/04 A3010 RMK AO2 PRESRR SLP192
                 T01330039 =
2014-11-25 16:36 METAR KPHF 252136Z 06007KT 10SM SCT025 SCT047 BKN070 13/04 A3007 RMK AO2
                 T01330044 =
2014-11-25 16:24 METAR KPHF 252124Z 03006KT 10SM BKN025 OVC065 13/04 A3008 RMK AO2 T01330039 =
2014-11-25 16:15 METAR KPHF 252115Z 05007KT 10SM SCT026 SCT045 BKN065 13/04 A3006 RMK AO2
                 T01330044 =
2014-11-25 15:54 METAR KPHF 252054Z 06007KT 10SM BKN025 BKN045 BKN070 13/06 A3006 RMK AO2
                 RAB32E51 SLP177 P0000 60000 T01330061 53012 =
2014-11-25 14:54 METAR KPHF 251954Z 06006KT 10SM OVC021 14/07 A3003 RMK AO2 RAB1855E35 SLP168
                 P0000 T01440072 =
2014-11-25 13:54 METAR KPHF 251854Z 05004KT 10SM OVC018 14/08 A3002 RMK AO2 RAB07E39 SLP165 P0000
                 T01440078 =
2014-11-25 13:10 METAR KPHF 251810Z 06007KT 10SM -RA OVC016 15/08 A3001 =
2014-11-25 12:54 METAR KPHF 251754Z 04006KT 10SM OVC014 15/08 A3002 RMK AO2 RAB06E39 SLP166 P0000
                 60000 T01500078 10189 20150 58001 =
2014-11-25 12:30 METAR KPHF 251730Z 03006KT 10SM -RA BKN014 BKN019 OVC034 16/11 A3003 RMK AO2
                 RAB06 P0000 T01610106 =
2014-11-25 11:54 METAR KPHF 251654Z 28003KT 10SM BKN030 OVC036 18/14 A3003 RMK AO2 RAB40E50
                 SLP168 P0000 T01830144 =
2014-11-25 11:45 METAR KPHF 251645Z 27005KT 10SM -RA BKN030 OVC036 18/14 A3003 RMK AO2 RAB40
                 P0000 T01830144 =
2014-11-25 10:54 METAR KPHF 251554Z 22004KT 9SM OVC022 18/14 A3004 RMK AO2 RAE09 SLP171 P0000
                 T01780144 =
2014-11-25 10:02 METAR KPHF 251502Z 23003KT 9SM -RA BKN019 BKN038 OVC100 18/14 A3004 RMK AO2
                 P0000 T01830139 =
2014-11-25 09:54 METAR KPHF 251454Z 21003KT 6SM -RA SCT020 BKN038 OVC100 18/14 A3003 RMK AO2
                 RAB24 SLP167 P0000 60000 T01830139 51021 =
2014-11-25 08:54 METAR KPHF 251354Z 21007KT 10SM OVC027 18/14 A3001 =
2014-11-25 07:54 METAR KPHF 251254Z 23006KT 10SM CLR 18/14 A2998 =
2014-11-25 06:54 METAR KPHF 251154Z 22007KT 10SM CLR 17/13 A2997 RMK AO2 SLP147 60000 7////
                 T01720133 10194 20172 53017 =
2014-11-25 05:54 METAR KPHF 251054Z AUTO 21007KT 10SM CLR 17/13 A2994 RMK AO2 RAB0959E10 SLP137
                 P0000 T01720133 TSNO =
2014-11-25 04:54 METAR KPHF 250954Z 22006KT 10SM SCT110 18/13 A2994 RMK AO2 RAE16 SLP138 P0000
                 T01780133 =
2014-11-25 03:54 METAR KPHF 250854Z 21007KT 10SM -RA FEW090 BKN110 18/13 A2992 RMK AO2
                 RAB04E14B50 SLP129 P0000 60000 T01830133 53009 =
2014-11-25 02:54 METAR KPHF 250754Z 22009KT 10SM FEW110 18/13 A2991 =
2014-11-25 01:54 METAR KPHF 250654Z 23010KT 10SM -RA FEW110 19/14 A2989 RMK AO2 RAE06B44 SLP121
                 P0000 T01890139 =
2014-11-25 00:54 METAR KPHF 250554Z 22012KT 10SM -RA CLR 19/14 A2989 RMK AO2 RAB48 SLP121 P0000
                 6//// T01890144 10222 20183 53003 =
2014-11-24 23:54 METAR KPHF 250454Z 22010KT 10SM CLR 19/15 A2986 RMK AO2 RAE16 SLP112 P0000
                 T01940150 402500183 =
2014-11-24 22:54 METAR KPHF 250354Z 19004KT 10SM -RA FEW095 SCT110 19/16 A2984 =
2014-11-24 21:54 METAR KPHF 250254Z 23011KT 10SM CLR 20/15 A2988 RMK AO2 SLP118 6//// T02000150
                 53029 =
2014-11-24 20:54 METAR KPHF 250154Z 23013KT 10SM FEW110 20/16 A2984 RMK AO2 RAB23E25 SLP105 P0001
                 T02000156 =
2014-11-24 19:54 METAR KPHF 250054Z 20012G20KT 8SM SCT034 BKN095 BKN120 22/17 A2980 RMK AO2
                 SLP092 T02170172 $ =

Support USWX by starting your Amazon purchase here.